UNBB

Barnaul Airport

Barnaul, Russian Federation
TAF UNBB 212000Z 2121/2221 VRB01MPS 0200 FG BKN001 BKN030CB TEMPO 2121/2203 1200 BR SCT007 BKN011CB FM220300 36005G10MPS 3100 -SHRA BKN030CB TEMPO 2203/2205 0650 FG SCT003 BKN011CB PROB40 TEMPO 2203/2218 -TSRA
Issued Valid From Valid To
Jul-21 @ 20:00 UTC
(3 hours ago)
Jul-21 @ 21:00 UTC
(2 hours ago)
Jul-22 @ 21:00 UTC
(in 22 hours)
Jul-21 @ 21:00 to Jul-22 @ 03:00
TAF UNBB 212000Z 2121/2221 VRB01MPS 0200 FG BKN001 BKN030CB
Wind Visibility Clouds Conditions
Variable at 2 knots 193 meters
  • Broken at 100' AGL
  • Broken at 3,000' AGL
  • Fog
Temporary Jul-21 @ 21:00 to Jul-22 @ 03:00
TEMPO 2121/2203 1200 BR SCT007 BKN011CB
Visibility Clouds Conditions
1,207 meters
  • Scattered at 700' AGL
  • Broken at 1,100' AGL
  • Mist
Temporary Jul-22 @ 03:00 to Jul-22 @ 05:00
TEMPO 2203/2205 0650 FG SCT003 BKN011CB
Visibility Clouds Conditions
644 meters
  • Scattered at 300' AGL
  • Broken at 1,100' AGL
  • Fog
Temporary  (Probability 40%) Jul-22 @ 03:00 to Jul-22 @ 18:00
PROB40 TEMPO 2203/2218 -TSRA
Conditions
  • Light Thunderstorm
  • Light Rain
From Jul-22 @ 03:00 to Jul-22 @ 21:00
FM220300 36005G10MPS 3100 -SHRA BKN030CB
Wind Visibility Clouds Conditions
360° at 10 knots
 Gusting to 19 knots
3,106 meters
  • Broken at 3,000' AGL
  • Light Rain
TAF UNBB 212000Z 2121/2221 VRB01MPS 0200 FG BKN001 BKN030CB TEMPO 2121/2203 1200 BR SCT007 BKN011CB FM220300 36005G10MPS 3100 -SHRA BKN030CB TEMPO 2203/2205 0650 FG SCT003 BKN011CB PROB40 TEMPO 2203/2218 -TSRA
Issued Jul-21 @ 20:00 UTC
(3 hours ago)
Valid From Jul-21 @ 21:00 UTC
(2 hours ago)
Valid To Jul-22 @ 21:00 UTC
(in 22 hours)
Jul-21 @ 21:00 - Jul-22 @ 03:00
Wind Visibility
Variable at 2 knots 193 meters
Clouds
  • Broken at 100' AGL
  • Broken at 3,000' AGL
Conditions
  • Fog
Temporary Jul-21 @ 21:00 - Jul-22 @ 03:00
Clouds
  • Scattered at 700' AGL
  • Broken at 1,100' AGL
Conditions
  • Mist
Temporary Jul-22 @ 03:00 - Jul-22 @ 05:00
Clouds
  • Scattered at 300' AGL
  • Broken at 1,100' AGL
Conditions
  • Fog
Probability 40% Temporary Jul-22 @ 03:00 - Jul-22 @ 18:00
Conditions
  • Light Thunderstorm
  • Light Rain
From Jul-22 @ 03:00 - Jul-22 @ 21:00
Wind Visibility
360° at 10 knots
 Gusting to 19 knots
3,106 meters
Clouds
  • Broken at 3,000' AGL
Conditions
  • Light Rain